createdAt,value
2023-02-25T00:01:51.325Z,3.59
2023-02-25T00:04:27.689Z,3.54
2023-02-25T00:06:57.083Z,3.47
2023-02-25T00:09:24.520Z,3.57
2023-02-25T00:11:52.033Z,3.78
2023-02-25T00:14:19.501Z,3.51
2023-02-25T00:16:51.641Z,3.39
2023-02-25T00:19:18.951Z,3.51
2023-02-25T00:21:46.381Z,3.60
2023-02-25T00:24:16.926Z,3.78
2023-02-25T00:26:46.356Z,3.85
2023-02-25T00:29:14.315Z,3.74
2023-02-25T00:31:41.511Z,3.73
2023-02-25T00:34:08.943Z,3.71
2023-02-25T00:36:37.320Z,3.37
2023-02-25T00:39:04.786Z,3.30
2023-02-25T00:41:32.258Z,3.31
2023-02-25T00:44:02.137Z,3.24
2023-02-25T00:46:32.907Z,3.23
2023-02-25T00:49:01.592Z,3.23
2023-02-25T00:51:32.050Z,3.22
2023-02-25T00:54:00.152Z,3.28
2023-02-25T00:56:27.407Z,3.56
2023-02-25T00:58:55.956Z,3.64
2023-02-25T01:01:33.625Z,3.75
2023-02-25T01:04:01.708Z,3.70
2023-02-25T01:06:31.371Z,3.82
2023-02-25T01:09:00.170Z,3.85
2023-02-25T01:11:33.207Z,3.84
2023-02-25T01:14:04.678Z,3.77
2023-02-25T01:16:35.369Z,3.77
2023-02-25T01:19:07.778Z,3.77
2023-02-25T01:21:41.838Z,3.72
2023-02-25T01:24:15.330Z,3.58
2023-02-25T01:26:45.370Z,3.70
2023-02-25T01:29:17.079Z,3.64
2023-02-25T01:31:45.912Z,3.67
2023-02-25T01:34:22.628Z,3.66
2023-02-25T01:36:52.458Z,3.58
2023-02-25T01:39:21.780Z,3.60
2023-02-25T01:41:51.379Z,3.54
2023-02-25T01:44:21.896Z,3.44
2023-02-25T01:46:51.527Z,3.34
2023-02-25T01:49:44.951Z,3.32
2023-02-25T01:52:20.744Z,3.38
2023-02-25T01:54:58.159Z,3.32
2023-02-25T01:57:26.552Z,3.29
2023-02-25T01:59:55.476Z,3.33
2023-02-25T02:02:26.210Z,3.33
2023-02-25T02:04:55.081Z,3.32
2023-02-25T02:07:25.031Z,3.38
2023-02-25T02:10:00.308Z,3.39
2023-02-25T02:12:31.891Z,3.32
2023-02-25T02:15:01.300Z,3.29
2023-02-25T02:18:01.730Z,3.32
2023-02-25T02:20:32.539Z,3.23
2023-02-25T02:23:22.315Z,2.98
2023-02-25T02:26:20.479Z,3.12
2023-02-25T02:29:25.589Z,3.07
2023-02-25T02:32:07.277Z,3.11
2023-02-25T02:35:23.054Z,3.04
2023-02-25T02:38:15.471Z,3.01
2023-02-25T02:40:51.536Z,3.12
2023-02-25T02:43:34.105Z,2.97
2023-02-25T02:46:34.371Z,2.88
2023-02-25T02:49:41.035Z,2.90
2023-02-25T02:52:16.297Z,2.96
2023-02-25T02:54:55.235Z,2.92
2023-02-25T02:57:28.520Z,2.81
2023-02-25T03:00:18.263Z,2.89
2023-02-25T03:02:52.947Z,2.66
2023-02-25T03:05:22.406Z,2.58
2023-02-25T03:08:02.607Z,2.70
2023-02-25T03:10:31.300Z,2.66
2023-02-25T03:13:04.801Z,2.58
2023-02-25T03:15:32.692Z,2.61
2023-02-25T03:18:33.593Z,2.51
2023-02-25T03:21:08.575Z,2.41
2023-02-25T03:23:42.289Z,2.39
2023-02-25T03:26:30.371Z,2.34
2023-02-25T03:29:04.584Z,2.20
2023-02-25T03:32:05.167Z,2.33
2023-02-25T03:34:46.257Z,2.25
2023-02-25T03:37:29.671Z,2.24
2023-02-25T03:40:01.216Z,2.28
2023-02-25T03:42:35.157Z,2.25
2023-02-25T03:45:07.685Z,2.30
2023-02-25T03:47:37.541Z,2.29
2023-02-25T03:50:09.940Z,2.32
2023-02-25T03:52:39.318Z,2.32
2023-02-25T03:55:09.956Z,2.24
2023-02-25T03:57:44.567Z,2.39
2023-02-25T04:00:19.327Z,2.42
2023-02-25T04:02:48.137Z,2.40
2023-02-25T04:05:17.289Z,2.33
2023-02-25T04:07:45.065Z,2.40
2023-02-25T04:10:16.455Z,2.39
2023-02-25T04:12:43.689Z,2.48
2023-02-25T04:15:11.652Z,2.61
2023-02-25T04:17:39.068Z,2.62
2023-02-25T04:20:09.213Z,2.53
2023-02-25T04:22:36.564Z,2.57
2023-02-25T04:25:05.094Z,2.56
2023-02-25T04:27:33.606Z,2.55
2023-02-25T04:30:01.113Z,2.59
2023-02-25T04:32:28.671Z,2.63
2023-02-25T04:34:55.995Z,2.65
2023-02-25T04:37:24.382Z,2.66
2023-02-25T04:39:51.923Z,2.84
2023-02-25T04:42:20.312Z,3.04
2023-02-25T04:44:47.746Z,2.88
2023-02-25T04:47:15.310Z,2.56
2023-02-25T04:49:45.431Z,2.38
2023-02-25T04:52:17.007Z,2.24
2023-02-25T04:54:44.444Z,1.99
2023-02-25T04:57:12.302Z,1.97
2023-02-25T04:59:39.430Z,1.94
2023-02-25T05:02:07.783Z,1.87
2023-02-25T05:04:37.566Z,1.91
2023-02-25T05:07:06.937Z,1.90
2023-02-25T05:09:35.218Z,1.88
2023-02-25T05:12:03.531Z,1.94
2023-02-25T05:14:32.838Z,1.95
2023-02-25T05:17:00.280Z,1.93
2023-02-25T05:19:28.437Z,2.01
2023-02-25T05:21:55.829Z,2.13
2023-02-25T05:24:24.059Z,2.05
2023-02-25T05:26:54.427Z,2.04
2023-02-25T05:29:22.034Z,1.96
2023-02-25T05:31:52.204Z,1.99
2023-02-25T05:34:19.946Z,1.97
2023-02-25T05:36:47.300Z,2.01
2023-02-25T05:39:15.085Z,2.03
2023-02-25T05:41:42.229Z,2.03
2023-02-25T05:44:16.712Z,2.05
2023-02-25T05:46:44.007Z,2.09
2023-02-25T05:49:11.310Z,2.09
2023-02-25T05:51:39.766Z,2.14
2023-02-25T05:54:07.258Z,2.09
2023-02-25T05:56:34.696Z,2.12
2023-02-25T05:59:02.134Z,2.16
2023-02-25T06:01:29.728Z,2.22
2023-02-25T06:04:00.304Z,2.24
2023-02-25T06:06:29.768Z,2.28
2023-02-25T06:08:57.568Z,2.38
2023-02-25T06:11:30.638Z,2.43
2023-02-25T06:14:09.960Z,2.43
2023-02-25T06:16:39.321Z,2.56
2023-02-25T06:19:08.383Z,2.60
2023-02-25T06:21:36.389Z,2.66
2023-02-25T06:24:05.705Z,2.68
2023-02-25T06:26:42.090Z,2.86
2023-02-25T06:29:10.277Z,2.90
2023-02-25T06:31:38.830Z,2.98
2023-02-25T06:34:08.196Z,2.96
2023-02-25T06:36:35.813Z,3.00
2023-02-25T06:39:15.460Z,3.05
2023-02-25T06:41:43.872Z,3.03
2023-02-25T06:44:11.359Z,2.94
2023-02-25T06:46:39.804Z,2.95
2023-02-25T06:49:07.336Z,3.07
2023-02-25T06:51:34.786Z,3.08
2023-02-25T06:54:03.781Z,3.14
2023-02-25T06:56:32.661Z,3.13
2023-02-25T06:59:00.225Z,3.25
2023-02-25T07:01:27.754Z,3.20
2023-02-25T07:03:54.812Z,3.10
2023-02-25T07:06:34.342Z,3.17
2023-02-25T07:09:03.947Z,3.24
2023-02-25T07:11:33.975Z,3.23
2023-02-25T07:14:02.919Z,3.34
2023-02-25T07:16:31.510Z,3.37
2023-02-25T07:19:01.973Z,3.44
2023-02-25T07:21:31.145Z,3.37
2023-02-25T07:24:04.672Z,3.37
2023-02-25T07:26:33.696Z,3.35
2023-02-25T07:29:00.863Z,3.40
2023-02-25T07:31:29.422Z,3.61
2023-02-25T07:34:00.347Z,3.66
2023-02-25T07:36:30.942Z,3.73
2023-02-25T07:38:58.163Z,3.83
2023-02-25T07:41:25.687Z,3.82
2023-02-25T07:43:52.744Z,3.78
2023-02-25T07:46:20.013Z,3.86
2023-02-25T07:48:47.411Z,3.88
2023-02-25T07:51:20.636Z,3.89
2023-02-25T07:53:49.649Z,3.82
2023-02-25T07:56:18.543Z,3.85
2023-02-25T07:58:46.462Z,3.83
2023-02-25T08:01:26.147Z,3.89
2023-02-25T08:03:55.909Z,3.96
2023-02-25T08:06:25.629Z,3.95
2023-02-25T08:08:54.875Z,4.01
2023-02-25T08:11:24.400Z,4.00
2023-02-25T08:13:52.665Z,4.00
2023-02-25T08:16:22.257Z,3.93
2023-02-25T08:18:53.339Z,4.03
2023-02-25T08:21:22.711Z,4.07
2023-02-25T08:23:53.062Z,4.11
2023-02-25T08:26:27.939Z,4.07
2023-02-25T08:28:57.908Z,4.22
2023-02-25T08:31:26.047Z,4.39
2023-02-25T08:33:55.310Z,4.50
2023-02-25T08:36:25.159Z,4.57
2023-02-25T08:38:55.195Z,4.63
2023-02-25T08:41:23.662Z,4.59
2023-02-25T08:43:54.727Z,4.52
2023-02-25T08:46:26.665Z,4.65
2023-02-25T08:48:54.862Z,4.33
2023-02-25T08:51:33.536Z,4.34
2023-02-25T08:54:09.752Z,4.21
2023-02-25T08:56:40.624Z,4.10
2023-02-25T08:59:07.840Z,4.22
2023-02-25T09:01:45.298Z,4.29
2023-02-25T09:04:19.434Z,4.42
2023-02-25T09:06:49.781Z,4.26
2023-02-25T09:09:18.950Z,4.47
2023-02-25T09:11:49.122Z,4.43
2023-02-25T09:14:17.558Z,4.25
2023-02-25T09:16:46.004Z,4.11
2023-02-25T09:19:16.018Z,4.04
2023-02-25T09:21:43.248Z,3.80
2023-02-25T09:24:11.341Z,3.69
2023-02-25T09:26:39.645Z,3.63
2023-02-25T09:29:08.523Z,3.69
2023-02-25T09:31:37.804Z,3.62
2023-02-25T09:34:08.109Z,3.74
2023-02-25T09:36:35.781Z,3.71
2023-02-25T09:39:03.563Z,3.95
2023-02-25T09:41:53.958Z,4.05
2023-02-25T09:44:31.674Z,4.41
2023-02-25T09:47:10.079Z,4.33
2023-02-25T09:50:15.555Z,4.38
2023-02-25T09:52:48.417Z,4.33
2023-02-25T09:55:24.199Z,4.26
2023-02-25T09:58:03.223Z,4.30
2023-02-25T10:00:35.740Z,4.26
2023-02-25T10:03:13.090Z,4.08
2023-02-25T10:06:05.139Z,4.20
2023-02-25T10:08:48.121Z,4.07
2023-02-25T10:11:44.146Z,4.14
2023-02-25T10:14:46.179Z,4.11
2023-02-25T10:17:44.642Z,4.54
2023-02-25T10:20:18.740Z,4.47
2023-02-25T10:23:07.786Z,4.34
2023-02-25T10:25:43.363Z,4.08
2023-02-25T10:28:18.035Z,3.93
2023-02-25T10:30:59.636Z,3.87
2023-02-25T10:33:28.790Z,3.96
2023-02-25T10:36:18.122Z,4.01
2023-02-25T10:38:52.812Z,4.06
2023-02-25T10:41:24.074Z,3.97
2023-02-25T10:43:52.009Z,3.97
2023-02-25T10:46:34.970Z,3.99
2023-02-25T10:49:16.324Z,4.04
2023-02-25T10:52:06.751Z,4.21
2023-02-25T10:54:48.669Z,4.01
2023-02-25T10:57:40.505Z,3.66
2023-02-25T11:00:24.241Z,3.52
2023-02-25T11:02:52.487Z,3.39
2023-02-25T11:05:37.165Z,3.37
2023-02-25T11:08:11.298Z,3.36
2023-02-25T11:10:38.567Z,3.37
2023-02-25T11:13:26.970Z,3.27
2023-02-25T11:15:54.507Z,3.32
2023-02-25T11:18:33.662Z,3.26
2023-02-25T11:21:07.490Z,3.38
2023-02-25T11:23:40.854Z,3.48
2023-02-25T11:26:09.548Z,3.53
2023-02-25T11:28:43.986Z,3.75
2023-02-25T11:31:16.231Z,3.92
2023-02-25T11:33:51.053Z,3.98
2023-02-25T11:36:24.804Z,3.95
2023-02-25T11:39:08.079Z,4.21
2023-02-25T11:41:35.599Z,3.92
2023-02-25T11:44:30.810Z,4.15
2023-02-25T11:47:19.178Z,3.93
2023-02-25T11:50:16.156Z,4.11
2023-02-25T11:53:16.548Z,4.14
2023-02-25T11:55:46.633Z,3.89
2023-02-25T11:58:29.398Z,4.31
2023-02-25T12:01:07.234Z,4.67
2023-02-25T12:03:52.853Z,5.17
2023-02-25T12:06:39.140Z,4.95
2023-02-25T12:09:18.191Z,4.78
2023-02-25T12:12:22.300Z,4.85
2023-02-25T12:15:31.268Z,4.57
2023-02-25T12:18:09.085Z,4.43
2023-02-25T12:20:43.237Z,4.35
2023-02-25T12:23:49.810Z,4.22
2023-02-25T12:26:35.749Z,4.24
2023-02-25T12:29:28.478Z,4.39
2023-02-25T12:32:29.815Z,4.38
2023-02-25T12:35:12.638Z,4.29
2023-02-25T12:37:52.687Z,4.50
2023-02-25T12:40:36.777Z,4.37
2023-02-25T12:43:40.341Z,4.09
2023-02-25T12:46:21.555Z,4.84
2023-02-25T12:49:12.622Z,5.09
2023-02-25T12:52:02.435Z,5.15
2023-02-25T12:55:07.186Z,4.96
2023-02-25T12:57:36.439Z,4.95
2023-02-25T13:00:30.279Z,4.60
2023-02-25T13:03:25.138Z,4.63
2023-02-25T13:06:29.557Z,4.68
2023-02-25T13:09:11.789Z,4.60
2023-02-25T13:12:11.739Z,4.61
2023-02-25T13:15:23.775Z,4.09
2023-02-25T13:18:09.472Z,3.88
2023-02-25T13:21:07.610Z,3.80
2023-02-25T13:24:06.943Z,3.78
2023-02-25T13:26:44.083Z,3.68
2023-02-25T13:29:32.692Z,3.85
2023-02-25T13:32:20.006Z,3.86
2023-02-25T13:35:16.691Z,3.85
2023-02-25T13:38:15.159Z,3.98
2023-02-25T13:40:48.892Z,3.87
2023-02-25T13:43:26.110Z,3.59
2023-02-25T13:46:19.427Z,3.38
2023-02-25T13:49:07.307Z,3.23
2023-02-25T13:52:17.105Z,3.31
2023-02-25T13:55:03.602Z,3.28
2023-02-25T13:58:02.310Z,3.36
2023-02-25T14:01:06.981Z,3.19
2023-02-25T14:04:09.332Z,3.08
2023-02-25T14:07:30.782Z,3.12
2023-02-25T14:10:22.303Z,3.17
2023-02-25T14:13:08.080Z,3.16
2023-02-25T14:15:59.591Z,2.69
2023-02-25T14:18:45.245Z,2.47
2023-02-25T14:21:33.927Z,2.57
2023-02-25T14:24:28.277Z,2.53
2023-02-25T14:27:13.652Z,2.33
2023-02-25T14:30:14.689Z,2.30
2023-02-25T14:33:05.476Z,2.30
2023-02-25T14:35:50.453Z,2.22
2023-02-25T14:38:27.303Z,2.18
2023-02-25T14:41:15.832Z,2.10
2023-02-25T14:43:46.944Z,2.14
2023-02-25T14:46:53.526Z,2.08
2023-02-25T14:49:29.088Z,2.26
2023-02-25T14:52:15.101Z,2.23
2023-02-25T14:54:45.938Z,2.05
2023-02-25T14:57:20.846Z,2.10
2023-02-25T14:59:57.536Z,2.15
2023-02-25T15:02:45.882Z,2.21
2023-02-25T15:05:47.812Z,2.17
2023-02-25T15:08:46.385Z,2.04
2023-02-25T15:11:37.011Z,2.11
2023-02-25T15:14:57.089Z,2.30
2023-02-25T15:17:27.379Z,2.39
2023-02-25T15:20:24.177Z,2.32
2023-02-25T15:23:13.237Z,2.10
2023-02-25T15:25:54.071Z,1.78
2023-02-25T15:28:30.078Z,1.61
2023-02-25T15:31:03.323Z,1.53
2023-02-25T15:33:47.920Z,1.56
2023-02-25T15:36:18.987Z,1.55
2023-02-25T15:38:53.108Z,1.59
2023-02-25T15:41:39.886Z,1.59
2023-02-25T15:44:14.904Z,1.55
2023-02-25T15:46:44.840Z,1.61
2023-02-25T15:49:35.079Z,1.69
2023-02-25T15:52:04.957Z,1.67
2023-02-25T15:54:32.714Z,1.77
2023-02-25T15:57:10.643Z,1.63
2023-02-25T15:59:56.020Z,1.68
2023-02-25T16:02:30.480Z,1.78
2023-02-25T16:05:10.195Z,1.75
2023-02-25T16:07:46.066Z,1.63
2023-02-25T16:10:19.850Z,1.67
2023-02-25T16:12:51.353Z,1.61
2023-02-25T16:15:43.165Z,1.58
2023-02-25T16:18:51.131Z,1.44
2023-02-25T16:21:46.128Z,1.44
2023-02-25T16:24:15.352Z,1.51
2023-02-25T16:26:54.141Z,1.56
2023-02-25T16:29:35.974Z,1.69
2023-02-25T16:32:14.200Z,1.75
2023-02-25T16:35:01.961Z,1.54
2023-02-25T16:37:52.804Z,1.66
2023-02-25T16:40:38.086Z,1.53
2023-02-25T16:43:07.687Z,1.48
2023-02-25T16:45:58.355Z,1.43
2023-02-25T16:48:39.117Z,1.35
2023-02-25T16:51:11.239Z,1.48
2023-02-25T16:53:45.293Z,1.59
2023-02-25T16:56:22.470Z,1.66
2023-02-25T16:59:04.655Z,1.64
2023-02-25T17:01:34.729Z,1.60
2023-02-25T17:04:10.112Z,1.61
2023-02-25T17:06:39.156Z,1.63
2023-02-25T17:09:21.899Z,1.67
2023-02-25T17:12:01.112Z,1.64
2023-02-25T17:14:32.301Z,1.63
2023-02-25T17:17:00.537Z,1.67
2023-02-25T17:19:28.805Z,1.67
2023-02-25T17:22:00.836Z,1.60
2023-02-25T17:24:32.867Z,1.63
2023-02-25T17:27:02.012Z,1.54
2023-02-25T17:29:37.581Z,1.60
2023-02-25T17:32:29.741Z,1.61
2023-02-25T17:35:02.229Z,1.61
2023-02-25T17:37:31.815Z,1.60
2023-02-25T17:40:03.574Z,1.56
2023-02-25T17:42:37.703Z,1.53
2023-02-25T17:45:27.818Z,1.46
2023-02-25T17:47:56.311Z,1.51
2023-02-25T17:50:42.346Z,1.53
2023-02-25T17:53:34.391Z,1.44
2023-02-25T17:56:29.033Z,1.41
2023-02-25T17:59:36.899Z,1.37
2023-02-25T18:02:23.340Z,1.32
2023-02-25T18:04:53.123Z,1.33
2023-02-25T18:07:30.132Z,1.30
2023-02-25T18:09:59.098Z,1.22
2023-02-25T18:12:34.781Z,1.14
2023-02-25T18:15:20.978Z,1.11
2023-02-25T18:18:02.247Z,1.11
2023-02-25T18:20:33.534Z,0.98
2023-02-25T18:23:07.545Z,1.06
2023-02-25T18:25:39.311Z,1.09
2023-02-25T18:28:24.048Z,1.11
2023-02-25T18:30:53.204Z,1.11
2023-02-25T18:33:21.248Z,1.06
2023-02-25T18:35:50.446Z,1.11
2023-02-25T18:38:32.537Z,1.08
2023-02-25T18:41:03.593Z,1.10
2023-02-25T18:43:35.270Z,0.97
2023-02-25T18:46:04.281Z,0.92
2023-02-25T18:48:33.273Z,0.85
2023-02-25T18:51:08.753Z,0.87
2023-02-25T18:53:37.076Z,0.82
2023-02-25T18:56:08.901Z,0.85
2023-02-25T18:58:37.309Z,0.70
2023-02-25T19:01:05.766Z,0.76
2023-02-25T19:03:44.112Z,0.76
2023-02-25T19:06:12.703Z,0.64
2023-02-25T19:08:43.268Z,0.70
2023-02-25T19:11:25.170Z,0.68
2023-02-25T19:13:54.224Z,0.69
2023-02-25T19:16:24.198Z,0.43
2023-02-25T19:18:52.253Z,0.62
2023-02-25T19:21:22.443Z,0.55
2023-02-25T19:23:54.476Z,0.58
2023-02-25T19:26:23.102Z,0.54
2023-02-25T19:28:52.527Z,0.52
2023-02-25T19:31:22.994Z,0.52
2023-02-25T19:33:52.862Z,0.50
2023-02-25T19:36:22.420Z,0.54
2023-02-25T19:38:51.795Z,0.49
2023-02-25T19:41:19.837Z,0.52
2023-02-25T19:43:48.104Z,0.47
2023-02-25T19:46:18.211Z,0.42
2023-02-25T19:48:46.540Z,0.45
2023-02-25T19:51:15.275Z,0.51
2023-02-25T19:53:46.315Z,0.50
2023-02-25T19:56:14.862Z,0.53
2023-02-25T19:58:43.073Z,0.52
2023-02-25T20:01:14.496Z,0.54
2023-02-25T20:03:43.551Z,0.50
2023-02-25T20:06:16.687Z,0.53
2023-02-25T20:08:53.343Z,0.52
2023-02-25T20:11:23.644Z,0.52
2023-02-25T20:13:52.141Z,0.47
2023-02-25T20:16:22.042Z,0.53
2023-02-25T20:18:54.262Z,0.49
2023-02-25T20:21:22.736Z,0.46
2023-02-25T20:23:50.907Z,0.44
2023-02-25T20:26:23.408Z,0.44
2023-02-25T20:28:58.430Z,0.40
2023-02-25T20:31:27.812Z,0.33
2023-02-25T20:34:00.674Z,0.38
2023-02-25T20:37:02.984Z,0.38
2023-02-25T20:39:41.069Z,0.36
2023-02-25T20:42:15.974Z,0.39
2023-02-25T20:44:44.577Z,0.34
2023-02-25T20:47:23.459Z,0.38
2023-02-25T20:49:54.654Z,0.40
2023-02-25T20:52:24.925Z,0.38
2023-02-25T20:54:53.708Z,0.40
2023-02-25T20:57:24.403Z,0.43
2023-02-25T20:59:55.474Z,0.32
2023-02-25T21:02:26.102Z,0.41
2023-02-25T21:04:53.735Z,0.46
2023-02-25T21:07:21.514Z,0.47
2023-02-25T21:09:50.741Z,0.46
2023-02-25T21:12:18.938Z,0.43
2023-02-25T21:14:47.628Z,0.46
2023-02-25T21:17:16.242Z,0.53
2023-02-25T21:19:47.033Z,0.49
2023-02-25T21:22:15.006Z,0.45
2023-02-25T21:24:43.574Z,0.49
2023-02-25T21:27:13.850Z,0.45
2023-02-25T21:29:41.620Z,0.43
2023-02-25T21:32:09.649Z,0.45
2023-02-25T21:34:37.658Z,0.38
2023-02-25T21:37:07.267Z,0.44
2023-02-25T21:39:35.329Z,0.46
2023-02-25T21:42:04.092Z,0.51
2023-02-25T21:44:33.945Z,0.49
2023-02-25T21:47:01.481Z,0.46
2023-02-25T21:49:31.475Z,0.44
2023-02-25T21:51:59.066Z,0.51
2023-02-25T21:54:26.878Z,0.46
2023-02-25T21:56:55.884Z,0.34
2023-02-25T21:59:25.834Z,0.32
2023-02-25T22:01:54.793Z,0.28
2023-02-25T22:04:21.921Z,0.27
2023-02-25T22:06:49.525Z,0.19
2023-02-25T22:09:18.577Z,0.22
2023-02-25T22:11:46.083Z,0.20
2023-02-25T22:14:13.653Z,0.17
2023-02-25T22:16:41.352Z,0.17
2023-02-25T22:19:10.538Z,0.17
2023-02-25T22:21:38.107Z,0.14
2023-02-25T22:24:05.874Z,0.14
2023-02-25T22:26:34.347Z,0.24
2023-02-25T22:29:05.707Z,0.27
2023-02-25T22:31:40.301Z,0.32
2023-02-25T22:34:08.782Z,0.30
2023-02-25T22:36:36.406Z,0.36
2023-02-25T22:39:08.792Z,0.27
2023-02-25T22:41:37.329Z,0.35
2023-02-25T22:44:06.444Z,0.31
2023-02-25T22:46:37.412Z,0.30
2023-02-25T22:49:07.872Z,0.31
2023-02-25T22:51:40.726Z,0.27
2023-02-25T22:54:11.798Z,0.27
2023-02-25T22:56:40.205Z,0.24
2023-02-25T22:59:09.954Z,0.17
2023-02-25T23:01:37.970Z,0.11
2023-02-25T23:04:05.185Z,0.13
2023-02-25T23:06:43.373Z,0.18
2023-02-25T23:09:12.697Z,0.18
2023-02-25T23:11:43.453Z,0.16
2023-02-25T23:14:13.552Z,0.23
2023-02-25T23:16:46.805Z,0.15
2023-02-25T23:19:17.438Z,0.24
2023-02-25T23:21:45.266Z,0.18
2023-02-25T23:24:19.814Z,0.28
2023-02-25T23:26:50.881Z,0.29
2023-02-25T23:29:18.768Z,0.27
2023-02-25T23:31:48.018Z,0.24
2023-02-25T23:34:23.315Z,0.29
2023-02-25T23:36:51.031Z,0.30
2023-02-25T23:39:18.615Z,0.20
2023-02-25T23:41:46.120Z,0.26
2023-02-25T23:44:14.572Z,0.34
2023-02-25T23:46:43.626Z,0.37
2023-02-25T23:49:15.959Z,0.40
2023-02-25T23:51:48.258Z,0.41
2023-02-25T23:54:18.606Z,0.36
2023-02-25T23:56:46.649Z,0.35
2023-02-25T23:59:15.148Z,0.22
